Miramar Marine Corps Air Station
KNKX : now visible

Airfield :











YOU CAN JOIN US ON...

 
LOGIN :

Register | Disclaimer

   EN    FR    IT 

 









Legend :    VFR   Marginal VFR   IFR   Intensive IFR   Very Intensive IFR
Visi :
Ceiling :
>= 8 km
>= 3000ft
5 to 8 km
1000 to 3000 ft
1500m to 5 km
500 to 1000 ft
800 to 1500m
200 to 500 ft
< 800m
< 200 ft
Symbols :   Thunderstorms  Fog  Heavy snow  Heavy precipitations  Wind > 20 kt






- Airport Elevation : 477 ft


KNKX - Miramar Marine Corps Air Station

CURRENT METAR :
  • 080555Z 09006KT 10SM CLR 06/02 A3022 RMK AO2 SLP232 T00610017 10167 20061 51004 $

EXPIRED METARs :
  • 080455Z 00000KT 10SM CLR 07/02 A3022 RMK AO2 SLP231 T00670022 $
  • 080355Z 06005KT 10SM CLR 08/02 A3021 RMK AO2 SLP230 T00780022 $
  • 080255Z 06005KT 10SM CLR 09/03 A3021 RMK AO2 SLP230 T00890033 53005 $

TAF TAF KNKX
Valid from the 08 at 03:00 until the 09 at 03:00 UTC


0803/0903 07004KT 9999 FEW250 QNH3021INS
FM080830 08005KT 9999 FEW250 QNH3019INS
BECMG 0815/0817 VRB03KT QNH3022INS
BECMG 0819/0821 31008KT SCT250 521809 522709 523602 QNH3017INS
FM090130 33005KT 9999 FEW250 QNH3019INS T06/0814Z T21/0821Z
KZLA FIR / North America



MET'MAP, your aeronautical weather chart ! - Copyright ORBIFLY December 2007 - Disclaimer

ORBIFLY MET'MAP TEAM :

Programming & Development : Alexandra Zaïnal
Original concept : Baudouin d'Aumeries
Technical & hardware support : Manuel Goepfert
Assistance : Marc-Olivier Méhu




SOURCES & CREDITS :

   NOAA       Earth
Advisory